Time;durP1;ratioP1;P1;durP2;ratioP2;P2;SDS_P1;SDS_P2;PMS_P1;PMS_P2;Temp;Humidity;BMP_temperature;BMP_pressure;BME280_temperature;BME280_humidity;BME280_pressure;Samples;Min_cycle;Max_cycle;Signal;HPM_P1;HPM_P2
2022/03/08 00:00:56;;;;;;;;;;;0.60;99.90;;;;;;5098711;28;20011;-60
2022/03/08 00:03:21;;;;;;;;;;;0.60;99.90;;;;;;5115396;28;19927;-60
2022/03/08 00:05:47;;;;;;;;;;;0.50;99.90;;;;;;5116834;28;19924;-60
2022/03/08 00:08:12;;;;;;;;;;;0.50;99.90;;;;;;5116589;28;19928;-60
2022/03/08 00:10:38;;;;;;;;;;;0.40;99.90;;;;;;5115767;28;19931;-60
2022/03/08 00:13:05;;;;;;;;;;;0.40;99.90;;;;;;5116568;28;19923;-60
2022/03/08 00:15:30;;;;;;;;;;;0.40;99.90;;;;;;5098440;28;20425;-60
2022/03/08 00:17:57;;;;;;;;;;;0.40;99.90;;;;;;5097431;28;19930;-60
2022/03/08 00:20:22;;;;;;;;;;;0.30;99.90;;;;;;5097956;28;19928;-60
2022/03/08 00:22:48;;;;;;;;;;;0.30;99.90;;;;;;5097582;28;19931;-59
2022/03/08 00:25:14;;;;;;;;;;;0.30;99.90;;;;;;5115873;28;19971;-59
2022/03/08 00:27:45;;;;;;;;;;;0.30;99.90;;;;;;5116373;28;19969;-60
2022/03/08 00:30:12;;;;;;;;;;;0.30;99.90;;;;;;5115645;28;19928;-60
2022/03/08 00:32:38;;;;;;;;;;;0.30;99.90;;;;;;5116701;28;20358;-60
2022/03/08 00:35:04;;;;;;;;;;;0.30;99.90;;;;;;5098048;28;20026;-60
2022/03/08 00:37:30;;;;;;;;;;;0.20;99.90;;;;;;5115532;28;20642;-60
2022/03/08 00:39:56;;;;;;;;;;;0.20;99.90;;;;;;5116240;28;19923;-60
2022/03/08 00:42:23;;;;;;;;;;;0.20;99.90;;;;;;5115903;28;20409;-60
2022/03/08 00:44:48;;;;;;;;;;;0.20;99.90;;;;;;5079582;28;19923;-60
2022/03/08 00:47:14;;;;;;;;;;;0.20;99.90;;;;;;5080903;28;20076;-60
2022/03/08 00:49:39;;;;;;;;;;;0.30;99.90;;;;;;5097047;28;19923;-60
2022/03/08 00:52:06;;;;;;;;;;;0.20;99.90;;;;;;5115435;28;19924;-60
2022/03/08 00:54:31;;;;;;;;;;;0.20;99.90;;;;;;5116140;28;20281;-60
2022/03/08 00:56:57;;;;;;;;;;;0.20;99.90;;;;;;5115241;28;19923;-60
2022/03/08 00:59:23;;;;;;;;;;;0.20;99.90;;;;;;5115284;28;19953;-60
2022/03/08 01:01:49;;;;;;;;;;;0.20;99.90;;;;;;5115767;28;20288;-59
2022/03/08 01:04:16;;;;;;;;;;;0.10;99.90;;;;;;5097512;28;20014;-60
2022/03/08 01:06:42;;;;;;;;;;;0.10;99.90;;;;;;5114478;28;20362;-60
2022/03/08 01:09:09;;;;;;;;;;;0.00;99.90;;;;;;5097521;28;20095;-60
2022/03/08 01:11:36;;;;;;;;;;;-0.10;99.90;;;;;;5115230;28;20421;-60
2022/03/08 01:14:03;;;;;;;;;;;-0.20;99.90;;;;;;5096338;28;19928;-60
2022/03/08 01:16:28;;;;;;;;;;;-0.30;99.90;;;;;;5115305;28;19923;-60
2022/03/08 01:18:54;;;;;;;;;;;-0.30;99.90;;;;;;5096922;28;19923;-60
2022/03/08 01:21:22;;;;;;;;;;;-0.40;99.90;;;;;;5096530;28;19935;-60
2022/03/08 01:23:47;;;;;;;;;;;-0.50;99.90;;;;;;5115103;28;19923;-60
2022/03/08 01:26:14;;;;;;;;;;;-0.50;99.90;;;;;;5079515;28;20305;-60
2022/03/08 01:28:40;;;;;;;;;;;-0.60;99.90;;;;;;5114653;28;19931;-60
2022/03/08 01:31:06;;;;;;;;;;;-0.60;99.90;;;;;;5097343;28;19931;-60
2022/03/08 01:33:32;;;;;;;;;;;-0.70;99.90;;;;;;5113934;28;20032;-60
2022/03/08 01:35:57;;;;;;;;;;;-0.80;99.90;;;;;;5115407;28;19924;-60
2022/03/08 01:38:23;;;;;;;;;;;-0.80;99.90;;;;;;5115216;28;19924;-60
2022/03/08 01:40:48;;;;;;;;;;;-0.90;99.90;;;;;;5095485;28;19980;-60
2022/03/08 01:43:14;;;;;;;;;;;-0.90;99.90;;;;;;5115032;28;19927;-60
2022/03/08 01:45:40;;;;;;;;;;;-0.90;99.90;;;;;;5115009;28;20366;-60
2022/03/08 01:48:05;;;;;;;;;;;-0.90;99.90;;;;;;5095589;28;19924;-60
2022/03/08 01:50:31;;;;;;;;;;;-0.90;99.90;;;;;;5079269;28;19924;-60
2022/03/08 01:52:57;;;;;;;;;;;-0.90;99.90;;;;;;5096857;28;19931;-60
2022/03/08 01:55:23;;;;;;;;;;;-0.90;99.90;;;;;;5113094;28;19931;-60
2022/03/08 01:57:49;;;;;;;;;;;-0.90;99.90;;;;;;5114693;28;19967;-60
2022/03/08 02:00:17;;;;;;;;;;;-0.90;99.90;;;;;;5114688;28;19924;-60
2022/03/08 02:02:44;;;;;;;;;;;-0.90;99.90;;;;;;5095460;28;19984;-60
2022/03/08 02:05:10;;;;;;;;;;;-0.80;99.90;;;;;;5096317;28;20390;-60
2022/03/08 02:07:35;;;;;;;;;;;-0.90;99.90;;;;;;5114364;28;20061;-60
2022/03/08 02:10:01;;;;;;;;;;;-0.90;99.90;;;;;;5095122;28;19924;-60
2022/03/08 02:12:26;;;;;;;;;;;-0.90;99.90;;;;;;5114192;28;20339;-60
2022/03/08 02:14:52;;;;;;;;;;;-1.00;99.90;;;;;;5114628;28;19928;-60
2022/03/08 02:17:18;;;;;;;;;;;-1.10;99.90;;;;;;5113271;28;20322;-60
2022/03/08 02:19:43;;;;;;;;;;;-1.10;99.90;;;;;;5114444;28;19935;-60
2022/03/08 02:22:09;;;;;;;;;;;-1.10;99.90;;;;;;5114212;28;19959;-60
2022/03/08 02:24:34;;;;;;;;;;;-1.10;99.90;;;;;;5113321;28;20316;-60
2022/03/08 02:27:00;;;;;;;;;;;-1.20;99.90;;;;;;5114090;28;19969;-60
2022/03/08 02:29:27;;;;;;;;;;;-1.20;99.90;;;;;;5114419;28;19923;-60
2022/03/08 02:31:53;;;;;;;;;;;-1.30;99.90;;;;;;5113230;28;19928;-60
2022/03/08 02:34:19;;;;;;;;;;;-1.30;99.90;;;;;;5095444;28;20044;-60
2022/03/08 02:36:56;;;;;;;;;;;-1.30;99.90;;;;;;5114059;28;19960;-60
2022/03/08 02:39:21;;;;;;;;;;;-1.40;99.90;;;;;;5114010;28;19923;-60
2022/03/08 02:41:47;;;;;;;;;;;-1.40;99.90;;;;;;5114090;28;19931;-60
2022/03/08 02:44:13;;;;;;;;;;;-1.40;99.90;;;;;;5094400;28;19924;-59
2022/03/08 02:46:39;;;;;;;;;;;-1.40;99.90;;;;;;5113467;28;19970;-60
2022/03/08 02:49:04;;;;;;;;;;;-1.40;99.90;;;;;;5114336;28;19975;-60
2022/03/08 02:51:30;;;;;;;;;;;-1.30;99.90;;;;;;5113025;28;20285;-60
2022/03/08 02:53:55;;;;;;;;;;;-1.30;99.90;;;;;;5095347;28;20297;-60
2022/03/08 02:56:21;;;;;;;;;;;-1.20;99.90;;;;;;5113766;28;19924;-60
2022/03/08 02:58:47;;;;;;;;;;;-1.20;99.90;;;;;;5112904;28;19923;-59
2022/03/08 03:01:12;;;;;;;;;;;-1.20;99.90;;;;;;5113236;28;20392;-60
2022/03/08 03:03:38;;;;;;;;;;;-1.20;99.90;;;;;;5113804;28;20010;-60
2022/03/08 03:06:04;;;;;;;;;;;-1.10;99.90;;;;;;5094676;28;19923;-60
2022/03/08 03:08:29;;;;;;;;;;;-1.20;99.90;;;;;;5094609;28;19923;-60
2022/03/08 03:10:55;;;;;;;;;;;-1.30;99.90;;;;;;5113130;28;19928;-60
2022/03/08 03:13:20;;;;;;;;;;;-1.20;99.90;;;;;;5094420;28;20014;-60
2022/03/08 03:15:46;;;;;;;;;;;-1.30;99.90;;;;;;5095188;28;19923;-60
2022/03/08 03:18:12;;;;;;;;;;;-1.30;99.90;;;;;;5113148;28;20365;-60
2022/03/08 03:20:37;;;;;;;;;;;-1.30;99.90;;;;;;5093808;28;19924;-60
2022/03/08 03:23:03;;;;;;;;;;;-1.40;99.90;;;;;;5109903;28;19923;-60
2022/03/08 03:25:29;;;;;;;;;;;-1.40;99.90;;;;;;5111710;28;19924;-60
2022/03/08 03:27:54;;;;;;;;;;;-1.50;99.90;;;;;;5111939;28;20010;-60
2022/03/08 03:30:20;;;;;;;;;;;-1.40;99.90;;;;;;5113086;28;19931;-60
2022/03/08 03:32:45;;;;;;;;;;;-1.50;99.90;;;;;;5113405;28;20382;-59
2022/03/08 03:35:12;;;;;;;;;;;-1.50;99.90;;;;;;5112723;28;19958;-60
2022/03/08 03:37:37;;;;;;;;;;;-1.50;99.90;;;;;;5113186;28;19966;-60
2022/03/08 03:40:04;;;;;;;;;;;-1.50;99.90;;;;;;5113012;28;19970;-60
2022/03/08 03:42:29;;;;;;;;;;;-1.50;99.90;;;;;;5113127;28;19931;-60
2022/03/08 03:44:55;;;;;;;;;;;-1.60;99.90;;;;;;5112791;28;19920;-60
2022/03/08 03:47:20;;;;;;;;;;;-1.50;99.90;;;;;;5112301;28;19924;-60
2022/03/08 03:49:46;;;;;;;;;;;-1.60;99.90;;;;;;5113509;28;19958;-60
2022/03/08 03:52:12;;;;;;;;;;;-1.60;99.90;;;;;;5113302;28;20305;-59
2022/03/08 03:54:37;;;;;;;;;;;-1.60;99.90;;;;;;5093675;28;19924;-60
2022/03/08 03:57:03;;;;;;;;;;;-1.60;99.90;;;;;;5095060;28;20349;-59
2022/03/08 03:59:28;;;;;;;;;;;-1.60;99.90;;;;;;5112924;28;19930;-59
2022/03/08 04:01:54;;;;;;;;;;;-1.50;99.90;;;;;;5112046;28;20297;-60
2022/03/08 04:04:20;;;;;;;;;;;-1.50;99.90;;;;;;5094419;28;19931;-60
2022/03/08 04:06:45;;;;;;;;;;;-1.40;99.90;;;;;;5113284;28;19924;-60
2022/03/08 04:09:13;;;;;;;;;;;-1.40;99.90;;;;;;5111926;28;20344;-60
2022/03/08 04:11:38;;;;;;;;;;;-1.40;99.90;;;;;;5112511;28;20003;-60
2022/03/08 04:14:04;;;;;;;;;;;-1.30;99.90;;;;;;5112801;28;20039;-59
2022/03/08 04:16:30;;;;;;;;;;;-1.30;99.90;;;;;;5112132;28;19945;-60
2022/03/08 04:18:56;;;;;;;;;;;-1.30;99.90;;;;;;5113676;28;19924;-60
2022/03/08 04:21:21;;;;;;;;;;;-1.30;99.90;;;;;;5116233;28;19950;-60
2022/03/08 04:23:47;;;;;;;;;;;-1.30;99.90;;;;;;5097500;28;19919;-60
2022/03/08 04:26:12;;;;;;;;;;;-1.30;99.90;;;;;;5116857;28;19927;-59
2022/03/08 04:28:38;;;;;;;;;;;-1.30;99.90;;;;;;5098036;28;19931;-59
2022/03/08 04:31:04;;;;;;;;;;;-1.30;99.90;;;;;;5115001;28;20027;-59
2022/03/08 04:33:29;;;;;;;;;;;-1.20;99.90;;;;;;5115387;28;19931;-60
2022/03/08 04:35:55;;;;;;;;;;;-1.20;99.90;;;;;;5116670;28;19969;-60
2022/03/08 04:38:21;;;;;;;;;;;-1.20;99.90;;;;;;5114865;28;19931;-60
2022/03/08 04:40:46;;;;;;;;;;;-1.20;99.90;;;;;;5116577;28;19931;-59
2022/03/08 04:43:12;;;;;;;;;;;-1.20;99.90;;;;;;5097557;28;20297;-60
2022/03/08 04:45:39;;;;;;;;;;;-1.20;99.90;;;;;;5115440;28;19927;-60
2022/03/08 04:48:04;;;;;;;;;;;-1.20;99.90;;;;;;5115891;28;19931;-60
2022/03/08 04:50:30;;;;;;;;;;;-1.20;99.90;;;;;;5115642;28;19931;-60
2022/03/08 04:52:56;;;;;;;;;;;-1.20;99.90;;;;;;5115786;28;20362;-59
2022/03/08 04:55:21;;;;;;;;;;;-1.20;99.90;;;;;;5097724;28;20016;-59
2022/03/08 04:57:53;;;;;;;;;;;-1.20;99.90;;;;;;5096801;28;20357;-60
2022/03/08 05:00:21;;;;;;;;;;;-1.30;99.90;;;;;;5097776;28;20024;-60
2022/03/08 05:02:46;;;;;;;;;;;-1.30;99.90;;;;;;5115914;28;19923;-60
2022/03/08 05:05:13;;;;;;;;;;;-1.30;99.90;;;;;;5114866;28;19928;-60
2022/03/08 05:07:39;;;;;;;;;;;-1.30;99.90;;;;;;5115569;28;19924;-59
2022/03/08 05:10:05;;;;;;;;;;;-1.30;99.90;;;;;;5115827;28;19924;-60
2022/03/08 05:12:31;;;;;;;;;;;-1.30;99.90;;;;;;5114627;28;19931;-60
2022/03/08 05:14:57;;;;;;;;;;;-1.30;99.90;;;;;;5115084;28;19924;-60
2022/03/08 05:17:23;;;;;;;;;;;-1.40;99.90;;;;;;5115753;28;19928;-60
2022/03/08 05:19:48;;;;;;;;;;;-1.40;99.90;;;;;;5114883;28;19994;-60
2022/03/08 05:22:14;;;;;;;;;;;-1.30;99.90;;;;;;5114616;28;19924;-59
2022/03/08 05:24:40;;;;;;;;;;;-1.40;99.90;;;;;;5115415;28;19924;-60
2022/03/08 05:27:06;;;;;;;;;;;-1.40;99.90;;;;;;5096432;28;19924;-60
2022/03/08 05:29:31;;;;;;;;;;;-1.40;99.90;;;;;;5115300;28;20364;-59
2022/03/08 05:31:57;;;;;;;;;;;-1.50;99.90;;;;;;5115143;28;19924;-60
2022/03/08 05:34:22;;;;;;;;;;;-1.50;99.90;;;;;;5114576;28;19928;-59
2022/03/08 05:36:48;;;;;;;;;;;-1.50;99.90;;;;;;5115423;28;19924;-59
2022/03/08 05:39:14;;;;;;;;;;;-1.50;99.90;;;;;;5115194;28;19919;-59
2022/03/08 05:41:40;;;;;;;;;;;-1.60;99.90;;;;;;5113855;28;19924;-60
2022/03/08 05:44:05;;;;;;;;;;;-1.60;99.90;;;;;;5114744;28;19951;-60
2022/03/08 05:46:31;;;;;;;;;;;-1.60;99.90;;;;;;5115205;28;20286;-59
2022/03/08 05:48:56;;;;;;;;;;;-1.60;99.90;;;;;;5113996;28;20331;-60
2022/03/08 05:51:22;;;;;;;;;;;-1.60;99.90;;;;;;5114467;28;19982;-60
2022/03/08 05:53:48;;;;;;;;;;;-1.60;99.90;;;;;;5114004;28;19950;-60
2022/03/08 05:56:13;;;;;;;;;;;-1.60;99.90;;;;;;5096762;28;19923;-60
2022/03/08 05:58:39;;;;;;;;;;;-1.60;99.90;;;;;;5114465;28;20370;-60
2022/03/08 06:01:04;;;;;;;;;;;-1.60;99.90;;;;;;5113882;28;19976;-60
2022/03/08 06:03:30;;;;;;;;;;;-1.60;99.90;;;;;;5114807;28;19924;-60
2022/03/08 06:05:56;;;;;;;;;;;-1.60;99.90;;;;;;5079185;28;19920;-60
2022/03/08 06:08:21;;;;;;;;;;;-1.60;99.90;;;;;;5113537;28;19935;-60
2022/03/08 06:10:47;;;;;;;;;;;-1.60;99.90;;;;;;5114644;28;19930;-60
2022/03/08 06:13:12;;;;;;;;;;;-1.50;99.90;;;;;;5114323;28;20297;-60
2022/03/08 06:15:38;;;;;;;;;;;-1.50;99.90;;;;;;5113588;28;20030;-59
2022/03/08 06:18:04;;;;;;;;;;;-1.40;99.90;;;;;;5114409;28;20293;-60
2022/03/08 06:20:29;;;;;;;;;;;-1.40;99.90;;;;;;5114388;28;19930;-60
2022/03/08 06:22:55;;;;;;;;;;;-1.40;99.90;;;;;;5113096;28;20014;-60
2022/03/08 06:25:20;;;;;;;;;;;-1.30;99.90;;;;;;5113692;28;19930;-60
2022/03/08 06:27:46;;;;;;;;;;;-1.20;99.90;;;;;;5114204;28;19923;-60
2022/03/08 06:30:12;;;;;;;;;;;-1.10;99.90;;;;;;5094821;28;19971;-60
2022/03/08 06:32:37;;;;;;;;;;;-1.10;99.90;;;;;;5114022;28;19924;-60
2022/03/08 06:35:03;;;;;;;;;;;-1.10;99.90;;;;;;5114125;28;19947;-60
2022/03/08 06:37:29;;;;;;;;;;;-1.10;99.90;;;;;;5077841;28;20393;-59
2022/03/08 06:39:54;;;;;;;;;;;-1.00;99.90;;;;;;5114180;28;19924;-60
2022/03/08 06:42:20;;;;;;;;;;;-1.00;99.90;;;;;;5113151;28;19997;-60
2022/03/08 06:44:46;;;;;;;;;;;-1.00;99.90;;;;;;5112616;28;19943;-59
2022/03/08 06:47:11;;;;;;;;;;;-0.90;99.90;;;;;;5095536;28;19977;-60
2022/03/08 06:49:38;;;;;;;;;;;-0.90;99.90;;;;;;5113551;28;19924;-60
2022/03/08 06:52:04;;;;;;;;;;;-0.80;99.90;;;;;;5112291;28;19978;-60
2022/03/08 06:54:31;;;;;;;;;;;-0.60;99.90;;;;;;5113376;28;19966;-60
2022/03/08 06:56:57;;;;;;;;;;;-0.40;99.90;;;;;;5113975;28;19996;-60
2022/03/08 06:59:23;;;;;;;;;;;-0.30;99.90;;;;;;5112743;28;19924;-59
2022/03/08 07:01:50;;;;;;;;;;;;;;;;;;5113845;28;19924;-60
2022/03/08 07:04:15;;;;;;;;;;;0.30;99.90;;;;;;5112771;28;19924;-60
2022/03/08 07:06:41;;;;;;;;;;;0.50;99.90;;;;;;5113386;28;20018;-61
2022/03/08 07:09:06;;;;;;;;;;;0.60;99.90;;;;;;5112796;28;19931;-61
2022/03/08 07:11:35;;;;;;;;;;;0.50;99.90;;;;;;5094519;28;19927;-61
2022/03/08 07:14:01;;;;;;;;;;;0.70;99.90;;;;;;5113306;28;19934;-61
2022/03/08 07:16:26;;;;;;;;;;;0.80;99.90;;;;;;5113801;28;19924;-62
2022/03/08 07:18:52;;;;;;;;;;;0.90;99.90;;;;;;5086582;28;19939;-61
2022/03/08 07:21:18;;;;;;;;;;;1.00;99.90;;;;;;5106999;28;20006;-61
2022/03/08 07:23:44;;;;;;;;;;;1.30;99.90;;;;;;5113059;28;20011;-61
2022/03/08 07:26:10;;;;;;;;;;;1.30;99.90;;;;;;5091638;28;20301;-61
2022/03/08 07:28:35;;;;;;;;;;;1.60;99.90;;;;;;5112138;28;19977;-61
2022/03/08 07:31:01;;;;;;;;;;;1.70;99.90;;;;;;5094405;28;19932;-61
2022/03/08 07:33:27;;;;;;;;;;;1.70;99.90;;;;;;5109413;28;19924;-61
2022/03/08 07:35:53;;;;;;;;;;;1.80;99.90;;;;;;5093280;28;19923;-61
2022/03/08 07:38:18;;;;;;;;;;;2.00;99.90;;;;;;5110636;28;19931;-61
2022/03/08 07:40:44;;;;;;;;;;;2.10;99.90;;;;;;5094139;28;20281;-61
2022/03/08 07:43:10;;;;;;;;;;;2.40;99.90;;;;;;5112685;28;19924;-61
2022/03/08 07:45:36;;;;;;;;;;;2.20;99.90;;;;;;5075898;28;19925;-62
2022/03/08 07:48:04;;;;;;;;;;;2.50;99.90;;;;;;5108166;28;19932;-61
2022/03/08 07:50:30;;;;;;;;;;;2.60;99.90;;;;;;5112827;28;19924;-61
2022/03/08 07:52:59;;;;;;;;;;;2.80;99.90;;;;;;5094070;28;19924;-61
2022/03/08 07:55:26;;;;;;;;;;;2.90;99.90;;;;;;5111084;28;19930;-61
2022/03/08 07:57:51;;;;;;;;;;;3.00;99.90;;;;;;5100111;28;19928;-61
2022/03/08 08:00:17;;;;;;;;;;;3.10;99.90;;;;;;5098240;28;19970;-61
2022/03/08 08:02:43;;;;;;;;;;;3.30;99.90;;;;;;5115907;28;20298;-61
2022/03/08 08:05:09;;;;;;;;;;;3.40;99.90;;;;;;5103765;28;19924;-61
2022/03/08 08:07:34;;;;;;;;;;;3.50;99.90;;;;;;5095951;28;20006;-61
2022/03/08 08:10:00;;;;;;;;;;;3.70;99.90;;;;;;5115405;28;20422;-61
2022/03/08 08:12:26;;;;;;;;;;;3.80;99.90;;;;;;5114926;28;19924;-61
2022/03/08 08:14:51;;;;;;;;;;;3.90;99.90;;;;;;5088342;28;20026;-61
2022/03/08 08:17:18;;;;;;;;;;;4.10;99.90;;;;;;5115018;28;20023;-62
2022/03/08 08:19:43;;;;;;;;;;;4.40;99.90;;;;;;5114918;28;20347;-62
2022/03/08 08:22:09;;;;;;;;;;;4.40;99.90;;;;;;5115805;28;19927;-62
2022/03/08 08:24:35;;;;;;;;;;;4.50;99.90;;;;;;5096575;28;19919;-62
2022/03/08 08:27:01;;;;;;;;;;;4.70;99.90;;;;;;5098960;28;20363;-62
2022/03/08 08:29:26;;;;;;;;;;;4.80;99.90;;;;;;5109040;28;19931;-62
2022/03/08 08:31:52;;;;;;;;;;;5.00;99.90;;;;;;5115931;28;19998;-61
2022/03/08 08:34:18;;;;;;;;;;;5.10;99.90;;;;;;5115596;28;20011;-62
2022/03/08 08:36:46;;;;;;;;;;;5.20;99.90;;;;;;5112790;28;20351;-62
2022/03/08 08:39:14;;;;;;;;;;;5.40;99.90;;;;;;5095937;28;19924;-62
2022/03/08 08:41:41;;;;;;;;;;;5.50;99.90;;;;;;5077059;28;19927;-62
2022/03/08 08:44:07;;;;;;;;;;;;;;;;;;5115185;28;20014;-62
2022/03/08 08:46:32;;;;;;;;;;;5.80;99.90;;;;;;5114426;28;19970;-62
2022/03/08 08:48:58;;;;;;;;;;;5.90;99.90;;;;;;5115899;28;20391;-62
2022/03/08 08:51:23;;;;;;;;;;;6.10;99.90;;;;;;5088528;28;20356;-62
2022/03/08 08:53:49;;;;;;;;;;;6.20;99.90;;;;;;5094232;28;20380;-62
2022/03/08 08:56:15;;;;;;;;;;;6.30;99.90;;;;;;5112185;28;20297;-62
2022/03/08 08:58:41;;;;;;;;;;;6.40;99.90;;;;;;5114202;28;19924;-63
2022/03/08 09:01:06;;;;;;;;;;;6.60;99.90;;;;;;5115561;28;20026;-62
2022/03/08 09:03:32;;;;;;;;;;;6.80;99.90;;;;;;5115141;28;19927;-60
2022/03/08 09:05:58;;;;;;;;;;;6.90;99.90;;;;;;5113681;28;20290;-60
2022/03/08 09:08:24;;;;;;;;;;;7.00;99.90;;;;;;5115349;28;19924;-60
2022/03/08 09:10:51;;;;;;;;;;;7.10;99.90;;;;;;5113985;28;20396;-60
2022/03/08 09:13:16;;;;;;;;;;;7.20;99.90;;;;;;5097123;28;19923;-60
2022/03/08 09:15:42;;;;;;;;;;;7.50;99.90;;;;;;5097405;28;19947;-60
2022/03/08 09:21:32;;;;;;;;;;;7.70;99.90;;;;;;5102857;28;20450;-60
2022/03/08 09:23:57;;;;;;;;;;;7.80;99.90;;;;;;5095861;28;20018;-60
2022/03/08 09:26:23;;;;;;;;;;;7.90;99.90;;;;;;5114442;28;19928;-60
2022/03/08 09:28:49;;;;;;;;;;;8.00;99.90;;;;;;5096809;28;19982;-59
2022/03/08 09:31:14;;;;;;;;;;;8.10;99.90;;;;;;5114786;28;20430;-60
2022/03/08 09:33:41;;;;;;;;;;;8.20;99.90;;;;;;5113291;28;19924;-59
2022/03/08 09:36:07;;;;;;;;;;;8.30;99.90;;;;;;5115258;28;19931;-60
2022/03/08 09:38:33;;;;;;;;;;;8.50;99.90;;;;;;5115199;28;20285;-59
2022/03/08 09:41:00;;;;;;;;;;;8.60;99.90;;;;;;5113749;28;20011;-60
2022/03/08 09:43:26;;;;;;;;;;;8.70;99.90;;;;;;5113059;28;20416;-60
2022/03/08 09:45:51;;;;;;;;;;;8.90;99.90;;;;;;5114069;28;19927;-60
2022/03/08 09:48:18;;;;;;;;;;;8.90;99.90;;;;;;5114090;28;19923;-59
2022/03/08 09:50:43;;;;;;;;;;;9.00;99.90;;;;;;5114350;28;19930;-59
2022/03/08 09:53:10;;;;;;;;;;;9.00;99.80;;;;;;5090778;28;19932;-60
2022/03/08 09:55:35;;;;;;;;;;;9.00;99.20;;;;;;5111628;28;19942;-60
2022/03/08 09:58:01;;;;;;;;;;;9.10;97.60;;;;;;5109233;28;19928;-60
2022/03/08 10:00:28;;;;;;;;;;;9.20;99.30;;;;;;5088428;28;19978;-60
2022/03/08 10:02:55;;;;;;;;;;;9.30;98.40;;;;;;5095919;28;19961;-59
2022/03/08 10:05:25;;;;;;;;;;;9.40;96.90;;;;;;5114752;28;19923;-60
2022/03/08 10:08:02;;;;;;;;;;;9.50;95.90;;;;;;5113463;28;20011;-60
2022/03/08 10:10:29;;;;;;;;;;;9.60;95.80;;;;;;5113430;28;19968;-63
2022/03/08 10:12:57;;;;;;;;;;;9.70;95.00;;;;;;5113242;28;21278;-61
2022/03/08 10:15:22;;;;;;;;;;;9.80;94.50;;;;;;5113858;28;19934;-60
2022/03/08 10:17:48;;;;;;;;;;;9.90;92.50;;;;;;5113060;28;20402;-60
2022/03/08 10:20:26;;;;;;;;;;;10.10;85.40;;;;;;5112426;28;19961;-60
2022/03/08 10:22:51;;;;;;;;;;;10.40;89.00;;;;;;5113434;28;20381;-61
2022/03/08 10:25:24;;;;;;;;;;;10.80;86.80;;;;;;5113980;28;19931;-60
2022/03/08 10:27:52;;;;;;;;;;;11.20;85.10;;;;;;5113753;28;19931;-60
2022/03/08 10:30:18;;;;;;;;;;;11.80;80.20;;;;;;5113308;28;19992;-60
2022/03/08 10:32:45;;;;;;;;;;;12.20;70.50;;;;;;5113443;28;19931;-61
2022/03/08 10:35:11;;;;;;;;;;;12.30;65.50;;;;;;5111369;28;20006;-60
2022/03/08 10:37:38;;;;;;;;;;;12.40;65.80;;;;;;5114143;28;20008;-61
2022/03/08 10:40:07;;;;;;;;;;;12.80;68.00;;;;;;5113763;28;19947;-61
2022/03/08 10:42:34;;;;;;;;;;;13.20;65.70;;;;;;5110672;28;20060;-60
2022/03/08 10:45:02;;;;;;;;;;;13.50;62.20;;;;;;5113151;28;19931;-61
2022/03/08 10:47:36;;;;;;;;;;;13.70;61.70;;;;;;5113402;28;19928;-61
2022/03/08 10:50:03;;;;;;;;;;;14.10;60.10;;;;;;5094574;28;20070;-61
2022/03/08 10:52:31;;;;;;;;;;;14.40;57.80;;;;;;5113119;28;19924;-61
2022/03/08 10:55:07;;;;;;;;;;;14.50;57.10;;;;;;5113077;28;19927;-61
2022/03/08 10:57:33;;;;;;;;;;;14.70;57.20;;;;;;5112487;28;20689;-61
2022/03/08 10:59:59;;;;;;;;;;;14.80;54.90;;;;;;5095258;28;19928;-61
2022/03/08 11:02:24;;;;;;;;;;;14.70;53.90;;;;;;5113473;28;19931;-60
2022/03/08 11:05:11;;;;;;;;;;;14.50;53.00;;;;;;5113016;28;19920;-60
2022/03/08 11:07:37;;;;;;;;;;;14.20;53.60;;;;;;5113422;28;19924;-60
2022/03/08 11:10:03;;;;;;;;;;;13.80;55.60;;;;;;5113484;28;20018;-61
2022/03/08 11:12:29;;;;;;;;;;;12.90;59.20;;;;;;5112508;28;19931;-60
2022/03/08 11:14:55;;;;;;;;;;;13.00;58.80;;;;;;5113713;28;19924;-60
2022/03/08 11:17:21;;;;;;;;;;;12.90;59.10;;;;;;5112735;28;20018;-61
2022/03/08 11:19:48;;;;;;;;;;;12.80;59.00;;;;;;5113563;28;19924;-61
2022/03/08 11:22:15;;;;;;;;;;;12.70;59.50;;;;;;5113333;28;19927;-61
2022/03/08 11:24:41;;;;;;;;;;;12.80;60.60;;;;;;5092820;28;19924;-61
2022/03/08 11:27:07;;;;;;;;;;;13.00;59.60;;;;;;5112395;28;19962;-61
2022/03/08 11:29:33;;;;;;;;;;;13.50;57.40;;;;;;5115951;28;19935;-61
2022/03/08 11:32:00;;;;;;;;;;;13.80;55.90;;;;;;5115868;28;20373;-61
2022/03/08 11:34:34;;;;;;;;;;;13.90;54.90;;;;;;5117103;28;19930;-61
2022/03/08 11:37:01;;;;;;;;;;;14.30;56.90;;;;;;5117835;28;19931;-61
2022/03/08 11:39:28;;;;;;;;;;;14.60;55.70;;;;;;5116739;28;19928;-61
2022/03/08 11:41:55;;;;;;;;;;;14.70;54.50;;;;;;5117214;28;19923;-61
2022/03/08 11:44:24;;;;;;;;;;;14.30;52.90;;;;;;5117671;28;20064;-61
2022/03/08 11:46:57;;;;;;;;;;;14.20;54.50;;;;;;5116407;28;19923;-61
2022/03/08 11:49:41;;;;;;;;;;;13.30;54.70;;;;;;5117477;28;19927;-61
2022/03/08 11:52:09;;;;;;;;;;;12.80;58.30;;;;;;5117256;28;19931;-61
2022/03/08 11:54:36;;;;;;;;;;;12.60;58.40;;;;;;5116185;28;19931;-62
2022/03/08 11:57:01;;;;;;;;;;;12.60;60.10;;;;;;5117435;28;20365;-61
2022/03/08 11:59:27;;;;;;;;;;;12.70;61.50;;;;;;5116727;28;19923;-61
2022/03/08 12:01:54;;;;;;;;;;;12.50;59.70;;;;;;5116637;28;19927;-61
2022/03/08 12:04:20;;;;;;;;;;;12.20;58.20;;;;;;5117174;28;19931;-61
2022/03/08 12:06:48;;;;;;;;;;;12.30;61.00;;;;;;5097956;28;19928;-61
2022/03/08 12:09:16;;;;;;;;;;;12.30;63.40;;;;;;5098263;28;20014;-61
2022/03/08 12:11:46;;;;;;;;;;;12.50;63.30;;;;;;5116812;28;19923;-61
2022/03/08 12:14:15;;;;;;;;;;;12.70;61.30;;;;;;5116018;28;19935;-61
2022/03/08 12:16:42;;;;;;;;;;;12.80;59.90;;;;;;5097681;28;19930;-61
2022/03/08 12:19:08;;;;;;;;;;;13.10;58.70;;;;;;5116821;28;19924;-61
2022/03/08 12:21:36;;;;;;;;;;;13.20;58.50;;;;;;5115647;28;19958;-61
2022/03/08 12:24:04;;;;;;;;;;;12.90;55.90;;;;;;5116606;28;20413;-60
2022/03/08 12:26:30;;;;;;;;;;;12.90;57.30;;;;;;5098824;28;19928;-61
2022/03/08 12:29:01;;;;;;;;;;;12.90;58.50;;;;;;5115999;28;19923;-61
2022/03/08 12:31:27;;;;;;;;;;;12.90;58.30;;;;;;5116458;28;19978;-61
2022/03/08 12:34:01;;;;;;;;;;;12.90;59.50;;;;;;5116884;28;19928;-61
2022/03/08 12:36:27;;;;;;;;;;;13.10;58.90;;;;;;5116194;28;20019;-61
2022/03/08 12:38:52;;;;;;;;;;;13.40;58.90;;;;;;5116592;28;20376;-61
2022/03/08 12:41:23;;;;;;;;;;;13.50;57.10;;;;;;5116049;28;19923;-61
2022/03/08 12:43:56;;;;;;;;;;;13.60;58.40;;;;;;5115933;28;20323;-61
2022/03/08 12:46:22;;;;;;;;;;;13.60;57.90;;;;;;5116236;28;20479;-61
2022/03/08 12:48:49;;;;;;;;;;;13.50;57.00;;;;;;5115362;28;19949;-61
2022/03/08 12:51:15;;;;;;;;;;;13.40;57.50;;;;;;5111942;28;19924;-61
2022/03/08 12:53:41;;;;;;;;;;;13.30;59.50;;;;;;5115359;28;20337;-61
2022/03/08 12:56:13;;;;;;;;;;;13.30;60.10;;;;;;5115113;28;19924;-61
2022/03/08 12:58:41;;;;;;;;;;;13.50;59.80;;;;;;5115751;28;19968;-61
2022/03/08 13:01:10;;;;;;;;;;;13.90;58.40;;;;;;5115536;28;19924;-62
2022/03/08 13:03:37;;;;;;;;;;;14.20;56.70;;;;;;5114955;28;19931;-61
2022/03/08 13:06:04;;;;;;;;;;;14.40;56.60;;;;;;5115636;28;20301;-62
2022/03/08 13:08:30;;;;;;;;;;;14.90;55.10;;;;;;5115425;28;19924;-61
2022/03/08 13:10:57;;;;;;;;;;;15.40;52.60;;;;;;5114794;28;19928;-61
2022/03/08 13:13:23;;;;;;;;;;;15.70;51.60;;;;;;5115595;28;20409;-62
2022/03/08 13:15:50;;;;;;;;;;;15.90;51.60;;;;;;5115228;28;20369;-62
2022/03/08 13:18:16;;;;;;;;;;;;;;;;;;5115086;28;19974;-61
2022/03/08 13:20:43;;;;;;;;;;;16.80;49.80;;;;;;5097144;28;19966;-62
2022/03/08 13:23:11;;;;;;;;;;;17.20;49.60;;;;;;5115176;28;19967;-61
2022/03/08 13:25:37;;;;;;;;;;;17.40;47.40;;;;;;5114943;28;19930;-61
2022/03/08 13:28:06;;;;;;;;;;;17.30;47.10;;;;;;5115213;28;19954;-61
2022/03/08 13:30:33;;;;;;;;;;;17.10;47.50;;;;;;5115351;28;20343;-61
2022/03/08 13:33:09;;;;;;;;;;;16.90;48.80;;;;;;5114670;28;19920;-61
2022/03/08 13:35:35;;;;;;;;;;;16.80;49.40;;;;;;5115385;28;19924;-61
2022/03/08 13:38:01;;;;;;;;;;;16.90;49.40;;;;;;5114475;28;20380;-62
2022/03/08 13:40:28;;;;;;;;;;;17.20;48.80;;;;;;5115449;28;19924;-61
2022/03/08 13:43:00;;;;;;;;;;;17.40;47.10;;;;;;5114734;28;19931;-62
2022/03/08 13:45:26;;;;;;;;;;;17.40;47.10;;;;;;5114194;28;19930;-61
2022/03/08 13:47:54;;;;;;;;;;;17.40;46.80;;;;;;5115118;28;19978;-61
2022/03/08 13:50:22;;;;;;;;;;;17.30;46.40;;;;;;5097042;28;20006;-62
2022/03/08 13:52:49;;;;;;;;;;;17.00;47.00;;;;;;5114112;28;19923;-62
2022/03/08 13:55:15;;;;;;;;;;;16.50;47.50;;;;;;5114695;28;19970;-62
2022/03/08 13:57:52;;;;;;;;;;;16.00;48.50;;;;;;5114935;28;19931;-62
2022/03/08 14:00:17;;;;;;;;;;;15.70;50.40;;;;;;5113869;28;19924;-61
2022/03/08 14:02:43;;;;;;;;;;;15.70;51.30;;;;;;5114651;28;19924;-62
2022/03/08 14:05:09;;;;;;;;;;;15.50;50.90;;;;;;5115033;28;19924;-62
2022/03/08 14:07:35;;;;;;;;;;;15.30;51.50;;;;;;5106402;28;20424;-61
2022/03/08 14:10:00;;;;;;;;;;;15.00;51.50;;;;;;5106974;28;19980;-61
2022/03/08 14:12:39;;;;;;;;;;;14.80;51.80;;;;;;5114012;28;19923;-62
2022/03/08 14:15:05;;;;;;;;;;;14.70;51.70;;;;;;5092895;28;19924;-61
2022/03/08 14:17:31;;;;;;;;;;;14.50;51.50;;;;;;5106163;28;19927;-61
2022/03/08 14:19:57;;;;;;;;;;;14.30;51.70;;;;;;5112244;28;20014;-61